Terminal Aerodrome Forecast
Issued by NWS

Home | Current Version | Previous Version | Text Only | Print | Product List | Glossary On
Versions: 1 2 3 4 5 6 7 8 9 10 11 12 13
000
FTUS45 KREV 241431 AAA
TAFMMH
TAF AMD
KMMH 241431Z 2415/2512 26014G26KT P6SM BKN180
     FM242200 26011KT P6SM SCT110 BKN180
     FM250400 29006KT P6SM SCT100 BKN180=

USA.gov is the U.S. government's official web portal to all federal, state and local government web resources and services.